Hill City, KS

12:41 PM CDT on May 23, 2015 (GMT -0500)
Hill City Municipal | | Change Station
CLOSE
Current Station
Airport
Location: Hill City,
Elevation: 2224 ft
Nearby Weather Stations

Elev 2224 ft 39.37 °N, 99.83 °W | Updated 13 minutes ago

Light Rain
Light Rain
57 °F
Feels Like 57 °F
N
7
Wind Variable Wind from SSE

Today
High -- | Low -- °F
--% Chance of Precip.
Yesterday
High -- | Low -- °F
Precip. -- in
6:19 AM 8:53 PM
Waxing Crescent, 31% visible
Pressure 30.08 in
Visibility 9.0 miles
Clouds Few 800 ft
Scattered Clouds 6500 ft
Overcast 9000 ft
Dew Point 55 °F
Humidity 93%
Rainfall 0.38 in
Snow Depth Not available.
UV 3 out of 12
Pollen 5.90 out of 12
Air Quality Not available.
Flu Activity No Activity
SPECI KHLC 231728Z AUTO 15006KT 9SM -RA FEW008 SCT065 OVC090 14/13 A3008 RMK AO2 PRESFR P0001 T01390128 $

More Conditions Fewer Conditions

Pressure 30.08 in
Visibility 9.0 miles
Clouds Few 800 ft
Scattered Clouds 6500 ft
Overcast 9000 ft
Dew Point 55 °F
Humidity 93%
Rainfall 0.38 in
Snow Depth Not available.
UV 3 out of 12
Pollen 5.90 out of 12
Air Quality Not available.
Flu Activity No Activity
SPECI KHLC 231728Z AUTO 15006KT 9SM -RA FEW008 SCT065 OVC090 14/13 A3008 RMK AO2 PRESFR P0001 T01390128 $

More Conditions Fewer Conditions

10-Day Weather Forecast

Almanac

Astronomy

May. 23, 2015 Rise Set
Actual Time
Civil Twilight
Nautical Twilight
Astronomical Twilight
Moon
Length of Visible Light
Length of Day
Tomorrow will be .
, % of the Moon is Illuminated

Today's Extremes

State Highs State Lows

Community

WunderPhotos

Upload Photos

1,823,525 photos uploaded!

WunderBlogs® & News

Nearby

Air Quality

  Air Quality AQ Index Pollutant
Not available.

Snow Depth

Station Depth Elevation

Earthquake Activity

City Distance Mag. Time & Date
Minimum magnitude displayed is 2.5.

Coastal Water Temperatures

Place Temperature

Stations

Nearby Weather Stations

Station Location Temp. Windchill Dew Point Humidity Wind Precip. Elev Updated Type